Time;durP1;ratioP1;P1;durP2;ratioP2;P2;SDS_P1;SDS_P2;PMS_P1;PMS_P2;Temp;Humidity;BMP_temperature;BMP_pressure;BME280_temperature;BME280_humidity;BME280_pressure;Samples;Min_cycle;Max_cycle;Signal;HPM_P1;HPM_P2
2024/01/12 00:00:15;;;;;;;4.00;1.20;;;;;;;-6.70;50.40;99124.27;107241;1258;68107;-40
2024/01/12 00:02:43;;;;;;;3.30;1.20;;;;;;;-6.69;50.39;99129.45;107168;1257;71400;-39
2024/01/12 00:05:11;;;;;;;3.10;1.10;;;;;;;-6.71;50.48;99136.64;107254;1257;59650;-39
2024/01/12 00:07:38;;;;;;;2.70;1.50;;;;;;;-6.76;50.86;99140.77;107260;1261;59961;-39
2024/01/12 00:10:08;;;;;;;3.50;1.30;;;;;;;-6.81;50.88;99151.91;107055;1262;70834;-39
2024/01/12 00:12:36;;;;;;;2.20;1.40;;;;;;;-6.85;51.06;99153.66;107106;1258;67920;-39
2024/01/12 00:15:05;;;;;;;2.10;1.10;;;;;;;-6.90;51.06;99162.69;107114;1263;70085;-39
2024/01/12 00:17:33;;;;;;;;;;;;;;;-6.96;50.95;99166.13;107072;1260;60425;-39
2024/01/12 00:20:02;;;;;;;2.40;1.20;;;;;;;-7.05;51.35;99170.83;107209;1258;60328;-38
2024/01/12 00:22:30;;;;;;;2.50;1.40;;;;;;;-7.15;51.52;99174.26;107037;1258;73866;-39
2024/01/12 00:24:57;;;;;;;3.30;1.20;;;;;;;-7.23;51.82;99178.83;107050;1262;67573;-39
2024/01/12 00:27:25;;;;;;;2.70;1.30;;;;;;;-7.21;51.96;99181.58;107032;1262;70295;-39
2024/01/12 00:29:53;;;;;;;3.30;1.30;;;;;;;-7.14;52.16;99187.60;107032;1263;61689;-39
2024/01/12 00:32:20;;;;;;;2.00;1.20;;;;;;;-7.09;52.14;99190.08;107080;1263;60395;-39
2024/01/12 00:34:48;;;;;;;2.40;1.20;;;;;;;-7.02;51.96;99191.20;107062;1258;73881;-39
2024/01/12 00:37:15;;;;;;;2.50;1.20;;;;;;;-6.97;51.95;99195.30;107041;1262;67897;-39
2024/01/12 00:39:43;;;;;;;2.40;1.20;;;;;;;-6.95;51.77;99201.64;107031;1261;71406;-39
2024/01/12 00:42:10;;;;;;;2.00;1.20;;;;;;;-6.95;52.16;99204.96;107019;1261;60472;-39
2024/01/12 00:44:38;;;;;;;3.60;1.60;;;;;;;-6.95;52.05;99213.48;107026;1260;60421;-39
2024/01/12 00:47:05;;;;;;;3.60;1.50;;;;;;;-6.98;51.98;99214.79;106306;1257;1002874;-39
2024/01/12 00:49:34;;;;;;;2.10;1.20;;;;;;;-7.05;52.07;99222.90;107061;1258;67594;-39
2024/01/12 00:52:01;;;;;;;3.30;1.60;;;;;;;-7.13;52.09;99226.91;107000;1263;72665;-39
2024/01/12 00:54:29;;;;;;;3.20;1.40;;;;;;;-7.20;52.51;99233.36;107044;1257;59288;-39
2024/01/12 00:56:56;;;;;;;1.80;1.20;;;;;;;-7.26;52.48;99230.77;106305;1263;1003796;-39
2024/01/12 00:59:24;;;;;;;3.30;1.40;;;;;;;-7.33;52.79;99227.80;107068;1263;73834;-39
2024/01/12 01:01:56;;;;;;;5.80;1.40;;;;;;;-7.36;52.85;99230.98;107050;1263;66626;-38
2024/01/12 01:04:27;;;;;;;3.10;1.60;;;;;;;-7.32;52.92;99232.22;107048;1263;72474;-39
2024/01/12 01:06:55;;;;;;;1.80;1.10;;;;;;;-7.26;53.05;99234.04;107050;1263;60856;-39
2024/01/12 01:09:23;;;;;;;5.90;1.90;;;;;;;-7.17;52.92;99232.18;107241;1263;60496;-39
2024/01/12 01:11:53;;;;;;;3.20;1.70;;;;;;;-7.09;52.70;99230.48;107288;1257;73846;-40
2024/01/12 01:14:24;;;;;;;3.00;1.50;;;;;;;-7.09;52.81;99234.98;107264;1262;67560;-39
2024/01/12 01:16:53;;;;;;;3.00;1.50;;;;;;;-7.11;52.87;99235.89;106299;1262;1015503;-39
2024/01/12 01:19:21;;;;;;;3.80;1.40;;;;;;;-7.15;52.82;99240.31;107220;1257;60411;-39
2024/01/12 01:21:49;;;;;;;3.10;1.30;;;;;;;-7.16;52.79;99244.78;106545;1257;1003139;-39
2024/01/12 01:24:17;;;;;;;2.50;1.20;;;;;;;-7.18;52.84;99247.52;106573;1261;1002951;-39
2024/01/12 01:26:44;;;;;;;3.70;1.40;;;;;;;-7.20;53.02;99247.05;107271;1261;67863;-39
2024/01/12 01:29:12;;;;;;;4.40;1.50;;;;;;;-7.24;53.03;99251.76;107247;1256;72529;-40
2024/01/12 01:31:40;;;;;;;3.40;1.80;;;;;;;-7.30;53.09;99258.45;107274;1257;60434;-39
2024/01/12 01:34:07;;;;;;;4.40;2.20;;;;;;;-7.37;53.01;99262.23;107264;1260;60341;-39
2024/01/12 01:36:35;;;;;;;4.00;1.80;;;;;;;-7.43;53.40;99261.73;107261;1257;72836;-39
2024/01/12 01:39:03;;;;;;;3.40;1.50;;;;;;;-7.41;53.11;99263.30;106507;1260;1003047;-39
2024/01/12 01:41:30;;;;;;;2.60;1.60;;;;;;;-7.37;53.00;99265.29;107197;1258;71391;-39
2024/01/12 01:43:58;;;;;;;2.50;1.40;;;;;;;-7.32;53.16;99268.67;107216;1257;60432;-39
2024/01/12 01:46:27;;;;;;;2.20;1.60;;;;;;;-7.23;53.08;99268.05;107297;1257;60472;-39
2024/01/12 01:48:54;;;;;;;3.00;1.50;;;;;;;-7.11;53.03;99271.77;107281;1257;73873;-39
2024/01/12 01:51:21;;;;;;;3.30;1.70;;;;;;;-7.08;53.04;99274.70;106485;1261;1002556;-39
2024/01/12 01:53:49;;;;;;;4.60;1.70;;;;;;;-7.04;53.02;99274.59;107289;1257;72663;-39
2024/01/12 01:56:17;;;;;;;2.30;1.60;;;;;;;-7.03;52.86;99277.66;107077;1263;60552;-39
2024/01/12 01:58:44;;;;;;;2.30;1.50;;;;;;;-7.04;53.07;99281.39;106530;1260;1003544;-39
2024/01/12 02:01:12;;;;;;;3.90;1.70;;;;;;;-7.07;52.76;99288.41;107043;1257;73909;-39
2024/01/12 02:03:39;;;;;;;7.50;1.60;;;;;;;-7.12;52.68;99289.14;107247;1257;67567;-39
2024/01/12 02:06:07;;;;;;;4.30;1.80;;;;;;;-7.20;52.79;99290.38;107223;1257;71393;-39
2024/01/12 02:08:35;;;;;;;4.80;2.00;;;;;;;-7.30;53.26;99289.92;107063;1257;59672;-39
2024/01/12 02:11:04;;;;;;;3.40;1.70;;;;;;;-7.38;53.29;99296.20;107208;1262;60297;-38
2024/01/12 02:13:31;;;;;;;2.50;1.60;;;;;;;-7.49;53.33;99303.69;106502;1257;1003661;-39
2024/01/12 02:15:59;;;;;;;3.20;1.50;;;;;;;-7.58;53.27;99306.05;107245;1257;66299;-39
2024/01/12 02:18:26;;;;;;;7.10;1.90;;;;;;;-7.61;53.57;99311.96;107256;1257;71410;-39
2024/01/12 02:20:56;;;;;;;5.50;1.60;;;;;;;-7.60;53.72;99308.30;107288;1261;60437;-39
2024/01/12 02:23:24;;;;;;;3.70;1.50;;;;;;;-7.55;53.63;99315.52;107259;1257;60413;-40
2024/01/12 02:25:52;;;;;;;2.90;1.40;;;;;;;-7.45;53.83;99309.91;107213;1261;71652;-39
2024/01/12 02:28:19;;;;;;;6.20;1.80;;;;;;;-7.37;53.54;99314.77;107220;1257;67897;-39
2024/01/12 02:30:46;;;;;;;3.80;1.60;;;;;;;-7.36;53.75;99313.71;107267;1258;70435;-40
2024/01/12 02:33:14;;;;;;;2.90;1.60;;;;;;;-7.37;53.98;99315.19;106525;1257;1003605;-40
2024/01/12 02:35:42;;;;;;;5.70;2.20;;;;;;;-7.38;53.54;99319.43;107259;1257;59301;-39
2024/01/12 02:38:10;;;;;;;4.10;1.60;;;;;;;-7.44;53.81;99318.98;106459;1255;1002643;-40
2024/01/12 02:40:37;;;;;;;2.40;1.50;;;;;;;-7.51;53.89;99327.79;107179;1257;66278;-39
2024/01/12 02:43:05;;;;;;;6.10;2.00;;;;;;;-7.58;53.92;99329.59;107255;1260;72563;-40
2024/01/12 02:45:33;;;;;;;10.50;1.90;;;;;;;-7.64;54.05;99331.96;106463;1262;1002976;-39
2024/01/12 02:48:01;;;;;;;3.60;1.70;;;;;;;-7.72;54.09;99333.59;106513;1258;1002952;-39
2024/01/12 02:50:28;;;;;;;3.10;1.50;;;;;;;-7.84;54.16;99326.63;106495;1258;1002953;-39
2024/01/12 02:52:56;;;;;;;3.50;1.60;;;;;;;-7.83;54.30;99328.27;106491;1257;1003072;-40
2024/01/12 02:55:24;;;;;;;3.70;1.50;;;;;;;-7.80;54.31;99328.31;107296;1260;72634;-40
2024/01/12 02:57:51;;;;;;;3.20;1.50;;;;;;;-7.75;54.53;99331.55;107269;1258;60851;-40
2024/01/12 03:00:19;;;;;;;4.20;1.70;;;;;;;-7.64;54.58;99338.09;107255;1256;60302;-40
2024/01/12 03:02:46;;;;;;;4.70;1.90;;;;;;;-7.53;54.34;99340.08;107262;1256;73781;-44
2024/01/12 03:05:14;;;;;;;5.00;2.40;;;;;;;-7.49;54.28;99344.09;107243;1256;66066;-40
2024/01/12 03:07:41;;;;;;;3.00;1.80;;;;;;;-7.48;54.28;99346.58;107288;1257;72432;-40
2024/01/12 03:10:09;;;;;;;5.40;2.00;;;;;;;-7.49;54.12;99348.98;107232;1257;60441;-39
2024/01/12 03:12:37;;;;;;;6.00;2.30;;;;;;;-7.48;54.08;99355.94;107253;1257;60329;-39
2024/01/12 03:15:05;;;;;;;4.10;2.00;;;;;;;-7.49;54.03;99358.35;107262;1257;73827;-40
2024/01/12 03:17:32;;;;;;;6.50;1.80;;;;;;;-7.53;54.29;99360.98;107304;1258;66557;-40
2024/01/12 03:20:00;;;;;;;2.60;1.40;;;;;;;-7.60;54.25;99367.83;107210;1257;70069;-40
2024/01/12 03:22:29;;;;;;;2.50;1.40;;;;;;;-7.69;54.13;99369.76;107260;1256;60481;-39
2024/01/12 03:24:56;;;;;;;2.20;1.30;;;;;;;-7.77;54.14;99370.83;107262;1262;60346;-39
2024/01/12 03:27:24;;;;;;;2.00;1.10;;;;;;;-7.85;54.44;99373.40;107267;1258;73952;-39
2024/01/12 03:29:52;;;;;;;3.20;1.50;;;;;;;-7.84;54.44;99375.88;107240;1258;67590;-40
2024/01/12 03:32:21;;;;;;;2.70;1.50;;;;;;;-7.79;54.62;99380.86;107226;1257;71376;-40
2024/01/12 03:34:49;;;;;;;2.10;1.50;;;;;;;-7.71;54.64;99385.07;107290;1256;60848;-39
2024/01/12 03:37:16;;;;;;;5.20;2.40;;;;;;;-7.59;54.34;99388.69;107223;1257;60319;-39
2024/01/12 03:39:44;;;;;;;5.00;2.30;;;;;;;-7.52;54.42;99396.07;107210;1257;73781;-40
2024/01/12 03:42:11;;;;;;;4.70;2.60;;;;;;;-7.50;54.41;99397.78;107270;1257;67688;-39
2024/01/12 03:44:39;;;;;;;3.60;2.10;;;;;;;-7.47;54.59;99400.56;106470;1261;1003672;-39
2024/01/12 03:47:06;;;;;;;3.60;2.00;;;;;;;-7.47;54.28;99402.46;107237;1257;60438;-40
2024/01/12 03:49:34;;;;;;;3.30;1.80;;;;;;;-7.50;54.30;99404.20;107260;1257;60560;-39
2024/01/12 03:52:03;;;;;;;2.90;1.60;;;;;;;-7.55;54.24;99405.13;107221;1256;73893;-39
2024/01/12 03:54:42;;;;;;;3.60;1.60;;;;;;;-7.61;54.15;99410.10;107221;1258;67657;-39
2024/01/12 03:57:10;;;;;;;2.50;1.50;;;;;;;-7.69;54.27;99406.59;107227;1262;71473;-39
2024/01/12 03:59:37;;;;;;;2.40;1.30;;;;;;;-7.81;54.21;99405.81;106457;1258;1002416;-39
2024/01/12 04:02:05;;;;;;;5.30;1.70;;;;;;;-7.94;54.41;99406.45;107239;1258;59579;-39
2024/01/12 04:04:32;;;;;;;3.40;1.50;;;;;;;-7.99;54.54;99407.37;107282;1257;73788;-39
2024/01/12 04:07:00;;;;;;;3.60;1.90;;;;;;;-7.96;54.70;99410.16;107252;1257;67587;-40
2024/01/12 04:09:27;;;;;;;3.90;2.10;;;;;;;-7.90;54.85;99413.83;107226;1257;71396;-39
2024/01/12 04:11:55;;;;;;;4.50;1.90;;;;;;;-7.84;54.64;99416.30;107188;1257;60598;-40
2024/01/12 04:14:22;;;;;;;2.80;1.60;;;;;;;-7.76;54.96;99420.30;107236;1256;59998;-40
2024/01/12 04:16:50;;;;;;;1.80;1.20;;;;;;;-7.74;54.82;99420.34;107261;1257;72581;-40
2024/01/12 04:19:18;;;;;;;2.20;1.40;;;;;;;-7.75;54.89;99424.60;107303;1258;65292;-39
2024/01/12 04:21:45;;;;;;;3.90;1.70;;;;;;;-7.74;54.72;99433.20;107252;1257;72470;-40
2024/01/12 04:24:13;;;;;;;3.20;1.80;;;;;;;-7.76;54.70;99434.07;107270;1257;60543;-40
2024/01/12 04:26:40;;;;;;;2.60;1.50;;;;;;;-7.80;54.55;99438.52;107245;1257;60284;-39
2024/01/12 04:29:08;;;;;;;3.60;1.50;;;;;;;-7.89;54.63;99439.52;107257;1257;73869;-39
2024/01/12 04:31:40;;;;;;;3.90;1.60;;;;;;;-7.98;54.83;99442.15;106471;1261;1003705;-39
2024/01/12 04:34:08;;;;;;;2.60;1.60;;;;;;;-8.07;54.96;99443.05;107292;1260;71420;-39
2024/01/12 04:36:36;;;;;;;2.70;1.50;;;;;;;-8.18;54.93;99450.33;107205;1257;60530;-40
2024/01/12 04:39:04;;;;;;;3.50;1.60;;;;;;;-8.21;55.06;99454.35;107274;1257;60036;-39
2024/01/12 04:41:31;;;;;;;3.40;1.50;;;;;;;-8.19;54.98;99454.46;107225;1258;72589;-39
2024/01/12 04:43:59;;;;;;;3.40;1.50;;;;;;;-8.16;55.06;99460.55;107244;1257;66286;-39
2024/01/12 04:46:28;;;;;;;3.40;1.80;;;;;;;-8.10;55.14;99455.77;107277;1257;72313;-39
2024/01/12 04:48:55;;;;;;;3.40;1.80;;;;;;;-8.04;55.34;99461.30;107285;1257;60441;-39
2024/01/12 04:51:23;;;;;;;2.50;1.30;;;;;;;-8.02;55.30;99468.14;107241;1257;60364;-39
2024/01/12 04:53:50;;;;;;;3.30;1.60;;;;;;;-8.00;55.32;99475.59;106481;1257;1002943;-40
2024/01/12 04:56:18;;;;;;;3.90;1.60;;;;;;;-8.01;55.41;99478.27;106535;1256;1002649;-39
2024/01/12 04:58:45;;;;;;;4.30;1.90;;;;;;;-8.03;55.49;99482.25;107246;1257;72504;-39
2024/01/12 05:01:13;;;;;;;3.30;1.80;;;;;;;-8.10;55.39;99491.34;107247;1258;59749;-39
2024/01/12 05:03:42;;;;;;;3.30;1.70;;;;;;;-8.18;55.10;99496.80;107240;1256;60592;-39
2024/01/12 05:06:10;;;;;;;2.00;1.50;;;;;;;-8.25;55.29;99497.84;107281;1257;73280;-39
2024/01/12 05:08:38;;;;;;;5.10;1.50;;;;;;;-8.32;55.45;99502.30;107271;1257;67561;-39
2024/01/12 05:11:05;;;;;;;1.60;1.20;;;;;;;-8.31;55.86;99510.10;107257;1257;71388;-40
2024/01/12 05:13:33;;;;;;;2.20;1.20;;;;;;;-8.24;55.45;99513.16;107205;1257;61630;-40
2024/01/12 05:16:00;;;;;;;1.90;1.20;;;;;;;-8.15;55.54;99518.27;107281;1257;60400;-39
2024/01/12 05:18:28;;;;;;;1.90;1.10;;;;;;;-8.08;55.45;99521.84;107216;1257;72669;-40
2024/01/12 05:20:56;;;;;;;3.10;1.30;;;;;;;-8.04;55.26;99521.91;107239;1257;66258;-39
2024/01/12 05:23:24;;;;;;;4.20;1.30;;;;;;;-8.02;55.40;99528.42;107198;1257;71260;-39
2024/01/12 05:25:51;;;;;;;2.20;1.30;;;;;;;-8.01;55.50;99532.66;107192;1257;60437;-39
2024/01/12 05:28:19;;;;;;;2.30;1.60;;;;;;;-8.02;55.40;99534.90;107212;1257;60343;-39
2024/01/12 05:30:46;;;;;;;4.20;1.20;;;;;;;-8.06;55.57;99537.67;107264;1257;73051;-40
2024/01/12 05:33:14;;;;;;;5.60;1.60;;;;;;;-8.09;55.32;99540.27;107209;1257;66292;-39
2024/01/12 05:35:43;;;;;;;2.70;1.40;;;;;;;-8.15;55.48;99539.11;107266;1257;72673;-40
2024/01/12 05:38:10;;;;;;;3.20;1.70;;;;;;;-8.24;55.46;99539.57;107260;1257;60440;-40
2024/01/12 05:40:38;;;;;;;3.40;1.40;;;;;;;-8.30;55.70;99548.98;107192;1258;60735;-40
2024/01/12 05:43:05;;;;;;;2.60;1.50;;;;;;;-8.33;55.72;99549.09;106475;1257;1003075;-40
2024/01/12 05:45:33;;;;;;;3.40;1.50;;;;;;;-8.30;55.61;99548.94;107277;1257;67889;-39
2024/01/12 05:48:00;;;;;;;4.40;1.40;;;;;;;-8.27;55.37;99557.39;107254;1258;71429;-39
2024/01/12 05:50:29;;;;;;;2.10;1.30;;;;;;;-8.24;55.48;99555.19;107211;1257;61017;-39
2024/01/12 05:52:56;;;;;;;2.00;1.40;;;;;;;-8.19;55.66;99551.54;107264;1257;60087;-39
2024/01/12 05:55:24;;;;;;;2.40;1.50;;;;;;;-8.17;55.71;99553.68;107251;1257;72852;-40
2024/01/12 05:57:51;;;;;;;4.10;2.00;;;;;;;-8.16;55.70;99558.27;107289;1257;67835;-39
2024/01/12 06:00:19;;;;;;;7.30;2.80;;;;;;;-8.16;55.38;99554.82;106548;1260;1003477;-39
2024/01/12 06:02:46;;;;;;;4.90;1.90;;;;;;;-8.18;55.45;99558.04;107265;1257;60428;-40
2024/01/12 06:05:14;;;;;;;1.90;1.40;;;;;;;-8.23;55.68;99560.84;107298;1257;60064;-40
2024/01/12 06:07:41;;;;;;;3.00;1.50;;;;;;;-8.29;55.51;99560.89;107251;1257;73834;-39
2024/01/12 06:10:09;;;;;;;2.70;1.70;;;;;;;-8.38;55.42;99558.31;107250;1257;66355;-39
2024/01/12 06:12:36;;;;;;;3.70;1.50;;;;;;;-8.45;55.83;99562.89;106482;1257;1002845;-40
2024/01/12 06:15:05;;;;;;;2.30;1.40;;;;;;;-8.48;56.07;99562.67;107245;1257;61692;-39
2024/01/12 06:17:32;;;;;;;3.10;1.70;;;;;;;-8.44;56.00;99563.58;107293;1257;60089;-39
2024/01/12 06:20:00;;;;;;;4.20;1.90;;;;;;;-8.38;55.75;99563.86;107239;1257;72590;-39
2024/01/12 06:22:27;;;;;;;4.80;1.80;;;;;;;-8.30;55.92;99563.17;107255;1257;67572;-39
2024/01/12 06:24:55;;;;;;;4.30;2.30;;;;;;;-8.23;55.74;99567.71;107265;1256;72465;-39
2024/01/12 06:27:23;;;;;;;5.10;2.40;;;;;;;-8.21;55.83;99563.52;107269;1257;60444;-39
2024/01/12 06:29:50;;;;;;;6.00;2.60;;;;;;;-8.15;55.78;99563.84;107299;1257;60315;-39
2024/01/12 06:32:18;;;;;;;6.20;2.20;;;;;;;-8.17;55.76;99567.42;107231;1256;73831;-39
2024/01/12 06:34:47;;;;;;;5.70;2.50;;;;;;;-8.21;55.77;99569.49;107235;1257;67568;-39
2024/01/12 06:37:14;;;;;;;6.20;2.70;;;;;;;-8.26;55.66;99571.98;107234;1256;71759;-40
2024/01/12 06:39:42;;;;;;;3.00;1.90;;;;;;;-8.33;55.92;99568.91;107269;1260;60453;-40
2024/01/12 06:42:10;;;;;;;3.90;1.80;;;;;;;-8.41;55.78;99571.17;107290;1260;60382;-40
2024/01/12 06:44:41;;;;;;;4.20;1.60;;;;;;;-8.49;56.26;99570.58;107265;1258;73901;-40
2024/01/12 06:47:08;;;;;;;3.30;1.50;;;;;;;-8.51;56.31;99573.85;107271;1257;66292;-40
2024/01/12 06:49:36;;;;;;;3.50;1.50;;;;;;;-8.50;56.39;99576.05;107224;1257;70713;-40
2024/01/12 06:52:04;;;;;;;2.60;1.40;;;;;;;-8.50;56.72;99581.19;107231;1257;60913;-40
2024/01/12 06:54:32;;;;;;;3.50;2.10;;;;;;;-8.46;56.50;99583.83;107265;1256;60382;-40
2024/01/12 06:56:59;;;;;;;4.20;2.10;;;;;;;-8.39;56.93;99588.77;107254;1257;73813;-40
2024/01/12 06:59:27;;;;;;;5.40;2.10;;;;;;;-8.33;56.85;99592.73;107243;1257;66660;-38
2024/01/12 07:01:55;;;;;;;4.50;1.80;;;;;;;-8.29;57.30;99594.43;107239;1256;72699;-38
2024/01/12 07:04:23;;;;;;;2.80;1.70;;;;;;;-8.25;57.05;99601.70;107251;1257;60335;-39
2024/01/12 07:06:52;;;;;;;3.80;1.60;;;;;;;-8.25;57.27;99602.66;107273;1257;60483;-39
2024/01/12 07:09:20;;;;;;;2.70;1.60;;;;;;;-8.33;57.12;99605.63;106473;1257;1003013;-39
2024/01/12 07:11:48;;;;;;;4.00;1.80;;;;;;;-8.42;57.42;99607.69;107258;1256;66587;-39
2024/01/12 07:14:15;;;;;;;2.30;1.50;;;;;;;-8.51;57.62;99606.77;107210;1260;72696;-39
2024/01/12 07:16:43;;;;;;;2.30;1.50;;;;;;;-8.55;57.55;99607.13;107264;1257;60948;-39
2024/01/12 07:19:10;;;;;;;3.20;1.50;;;;;;;-8.55;57.70;99613.34;107178;1256;60263;-39
2024/01/12 07:21:38;;;;;;;4.40;1.90;;;;;;;-8.50;57.52;99613.66;107195;1257;73873;-39
2024/01/12 07:24:06;;;;;;;7.10;3.30;;;;;;;-8.47;57.69;99615.64;107255;1257;65580;-39
2024/01/12 07:26:33;;;;;;;18.90;10.40;;;;;;;-8.40;57.93;99614.98;107250;1256;72829;-40
2024/01/12 07:29:02;;;;;;;32.10;16.70;;;;;;;-8.34;57.96;99609.90;107228;1257;60424;-39
2024/01/12 07:31:31;;;;;;;14.90;8.00;;;;;;;-8.27;57.79;99613.23;107249;1258;60574;-40
2024/01/12 07:33:58;;;;;;;5.10;2.70;;;;;;;-8.21;57.74;99614.84;106491;1257;1003126;-40
2024/01/12 07:36:26;;;;;;;7.00;2.80;;;;;;;-8.19;57.91;99614.89;107260;1257;66620;-39
2024/01/12 07:38:54;;;;;;;3.40;2.10;;;;;;;-8.21;57.49;99611.09;107254;1257;72119;-40
2024/01/12 07:41:21;;;;;;;5.00;3.00;;;;;;;-8.28;57.69;99616.48;106488;1256;1003066;-40
2024/01/12 07:43:49;;;;;;;6.40;3.10;;;;;;;-8.33;57.85;99620.65;107255;1257;60537;-40
2024/01/12 07:46:17;;;;;;;6.20;2.70;;;;;;;-8.37;58.03;99618.48;107192;1257;73892;-40
2024/01/12 07:48:49;;;;;;;5.60;1.90;;;;;;;-8.30;57.88;99619.81;107239;1257;66175;-39
2024/01/12 07:51:17;;;;;;;5.80;2.30;;;;;;;-8.22;57.98;99617.02;107217;1257;71768;-39
2024/01/12 07:53:45;;;;;;;4.20;2.00;;;;;;;-8.14;57.44;99612.98;107208;1256;60825;-39
2024/01/12 07:56:12;;;;;;;3.90;2.10;;;;;;;-8.00;57.87;99612.65;107260;1256;60988;-40
2024/01/12 07:58:40;;;;;;;7.40;3.30;;;;;;;-7.78;57.81;99611.33;107221;1257;73224;-40
2024/01/12 08:01:14;;;;;;;6.80;3.20;;;;;;;-7.62;57.38;99609.70;107203;1256;67973;-39
2024/01/12 08:03:43;;;;;;;9.40;4.40;;;;;;;-7.49;57.17;99606.36;107231;1257;72184;-39
2024/01/12 08:06:11;;;;;;;9.40;5.80;;;;;;;-7.36;56.85;99604.11;107263;1260;60559;-40
2024/01/12 08:08:39;;;;;;;7.50;4.00;;;;;;;-7.26;56.62;99605.17;106490;1260;1003649;-39
2024/01/12 08:11:07;;;;;;;4.80;2.60;;;;;;;-7.24;55.90;99607.60;107260;1257;73928;-40
2024/01/12 08:13:49;;;;;;;7.40;3.10;;;;;;;-7.25;55.44;99610.73;107259;1256;68147;-40
2024/01/12 08:16:18;;;;;;;6.00;3.30;;;;;;;-7.24;55.65;99616.12;106480;1258;1003019;-41
2024/01/12 08:18:45;;;;;;;7.50;3.10;;;;;;;-7.21;55.59;99616.70;107249;1256;60453;-40
2024/01/12 08:21:13;;;;;;;5.10;2.70;;;;;;;-7.16;55.37;99618.90;106415;1257;1005719;-40
2024/01/12 08:23:40;;;;;;;7.60;3.80;;;;;;;-7.09;55.50;99623.92;107262;1257;72979;-40
2024/01/12 08:26:51;;;;;;;8.00;4.30;;;;;;;-6.82;55.43;99630.17;104219;1292;600497;-40
2024/01/12 08:29:19;;;;;;;9.70;5.50;;;;;;;-6.66;54.79;99635.90;106628;1267;60001;-40
2024/01/12 08:31:49;;;;;;;8.50;2.80;;;;;;;-6.52;54.69;99635.96;106639;1267;59282;-40
2024/01/12 08:34:18;;;;;;;4.40;2.50;;;;;;;-6.36;54.13;99637.19;106747;1265;72223;-40
2024/01/12 08:36:46;;;;;;;5.30;2.30;;;;;;;-6.29;53.78;99639.83;106725;1266;67697;-40
2024/01/12 08:39:14;;;;;;;5.10;2.60;;;;;;;-6.22;53.44;99645.61;106689;1267;72448;-40
2024/01/12 08:41:41;;;;;;;6.20;3.20;;;;;;;-6.18;53.08;99642.88;106735;1262;162066;-40
2024/01/12 08:44:11;;;;;;;6.60;2.90;;;;;;;-6.11;52.99;99646.23;106872;1263;59215;-40
2024/01/12 08:46:39;;;;;;;5.00;3.30;;;;;;;-6.06;52.67;99653.44;106848;1264;73265;-40
2024/01/12 08:49:06;;;;;;;5.60;2.80;;;;;;;-6.03;52.46;99650.46;106816;1263;66793;-40
2024/01/12 08:51:34;;;;;;;5.30;2.90;;;;;;;-5.98;52.51;99656.70;106820;1264;71452;-40
2024/01/12 08:54:02;;;;;;;5.30;2.60;;;;;;;-5.91;52.30;99659.02;106091;1268;1003833;-40
2024/01/12 08:56:30;;;;;;;4.40;2.20;;;;;;;-5.94;51.63;99661.83;106092;1264;1003390;-39
2024/01/12 08:58:58;;;;;;;4.80;2.40;;;;;;;-5.99;51.46;99660.77;106855;1263;72001;-40
2024/01/12 09:01:26;;;;;;;6.70;2.80;;;;;;;-6.01;51.57;99660.94;106868;1262;65867;-40
2024/01/12 09:03:53;;;;;;;8.80;3.30;;;;;;;-6.00;51.88;99661.48;106815;1264;72446;-40
2024/01/12 09:06:24;;;;;;;5.80;2.40;;;;;;;-5.95;51.73;99666.23;106817;1264;59611;-40
2024/01/12 09:08:52;;;;;;;4.50;2.40;;;;;;;-5.92;51.60;99664.54;106179;1268;1003843;-40
2024/01/12 09:11:19;;;;;;;5.30;2.50;;;;;;;-5.91;51.09;99664.30;106094;1264;1003086;-40
2024/01/12 09:13:48;;;;;;;3.70;1.90;;;;;;;-5.89;51.32;99668.64;106845;1262;68127;-40
2024/01/12 09:16:15;;;;;;;5.10;1.90;;;;;;;-5.86;51.15;99665.67;106736;1263;72482;-40
2024/01/12 09:18:43;;;;;;;7.00;2.70;;;;;;;-5.86;51.04;99667.84;106771;1262;60047;-39
2024/01/12 09:21:14;;;;;;;3.60;2.00;;;;;;;-5.88;50.88;99668.70;106780;1264;60287;-40
2024/01/12 09:23:43;;;;;;;5.10;2.00;;;;;;;-5.92;50.59;99666.40;106018;1264;1003412;-40
2024/01/12 09:26:11;;;;;;;4.80;2.00;;;;;;;-5.97;50.54;99667.33;106019;1262;1002951;-40
2024/01/12 09:28:39;;;;;;;4.70;2.00;;;;;;;-5.96;51.08;99664.39;106055;1267;1003685;-40
2024/01/12 09:31:08;;;;;;;4.70;2.20;;;;;;;-5.93;51.12;99662.63;106788;1264;59292;-40
2024/01/12 09:33:35;;;;;;;3.50;1.70;;;;;;;-5.88;51.02;99665.23;106167;1263;1003726;-40
2024/01/12 09:36:04;;;;;;;4.70;2.10;;;;;;;-5.78;51.05;99665.96;106145;1267;1003057;-40
2024/01/12 09:38:32;;;;;;;4.70;2.40;;;;;;;-5.73;50.51;99661.48;106833;1264;67585;-40
2024/01/12 09:41:04;;;;;;;3.90;2.10;;;;;;;-5.68;50.66;99657.48;106844;1262;72746;-40
2024/01/12 09:43:32;;;;;;;4.60;2.20;;;;;;;-5.57;50.46;99655.96;106078;1263;1003547;-40
2024/01/12 09:46:02;;;;;;;5.90;2.50;;;;;;;-5.47;50.33;99655.45;106843;1262;60156;-40
2024/01/12 09:48:30;;;;;;;4.10;2.30;;;;;;;-5.37;50.00;99655.13;106828;1268;72649;-41
2024/01/12 09:50:58;;;;;;;4.60;2.50;;;;;;;-5.32;49.75;99658.36;106832;1263;66274;-40
2024/01/12 09:53:25;;;;;;;4.50;2.50;;;;;;;-5.25;49.46;99661.39;106684;1264;72842;-40
2024/01/12 09:55:53;;;;;;;5.30;2.50;;;;;;;-5.19;49.33;99659.70;106784;1264;60179;-40
2024/01/12 09:58:35;;;;;;;5.20;2.20;;;;;;;-5.12;49.26;99658.41;106842;1264;59419;-40
2024/01/12 10:01:03;;;;;;;;;;;;;;;-4.98;49.02;99659.70;106778;1263;75259;-40
2024/01/12 10:03:30;;;;;;;3.60;1.80;;;;;;;-4.80;48.87;99660.40;106850;1263;67587;-40
2024/01/12 10:05:58;;;;;;;4.90;1.60;;;;;;;-4.71;48.50;99652.54;106776;1263;71460;-40
2024/01/12 10:08:35;;;;;;;4.60;2.10;;;;;;;-4.63;48.23;99652.02;106831;1263;60024;-40
2024/01/12 10:11:02;;;;;;;3.80;2.00;;;;;;;-4.55;48.10;99656.31;106893;1262;59554;-40
2024/01/12 10:13:30;;;;;;;4.60;1.90;;;;;;;-4.48;47.56;99654.34;106844;1263;73133;-40
2024/01/12 10:15:58;;;;;;;5.30;1.80;;;;;;;-4.43;47.27;99657.50;106085;1263;1003344;-40
2024/01/12 10:18:25;;;;;;;4.50;1.90;;;;;;;-4.41;46.83;99656.26;106853;1264;72483;-40
2024/01/12 10:20:54;;;;;;;3.50;1.90;;;;;;;-4.40;47.31;99654.36;106849;1264;60047;-40
2024/01/12 10:23:22;;;;;;;3.90;1.70;;;;;;;-4.34;46.80;99654.20;106782;1262;59539;-40
2024/01/12 10:26:00;;;;;;;4.90;2.00;;;;;;;-4.28;46.79;99648.55;106103;1264;1002981;-40
2024/01/12 10:28:29;;;;;;;3.80;1.80;;;;;;;-4.18;46.51;99651.32;106864;1264;67860;-40
2024/01/12 10:30:56;;;;;;;2.10;1.40;;;;;;;-4.09;46.34;99650.16;106131;1263;1003692;-40
2024/01/12 10:33:24;;;;;;;4.70;1.90;;;;;;;-4.05;45.82;99647.33;106865;1265;59640;-40
2024/01/12 10:35:59;;;;;;;4.80;1.90;;;;;;;-4.04;46.02;99640.71;106846;1264;62269;-40
2024/01/12 10:38:27;;;;;;;4.80;1.90;;;;;;;-3.97;46.26;99649.33;106143;1264;1003697;-40
2024/01/12 10:40:55;;;;;;;6.50;1.60;;;;;;;-3.84;45.89;99651.02;106033;1264;1003441;-40
2024/01/12 10:43:24;;;;;;;2.40;1.60;;;;;;;-3.74;45.43;99647.58;106106;1267;1003071;-40
2024/01/12 10:45:56;;;;;;;6.20;1.60;;;;;;;-3.64;45.28;99646.23;106832;1264;59592;-40
2024/01/12 10:48:24;;;;;;;3.70;2.00;;;;;;;-3.51;44.95;99640.77;106852;1262;59413;-40
2024/01/12 10:50:55;;;;;;;3.00;2.00;;;;;;;-3.43;44.97;99637.78;106802;1263;73188;-40
2024/01/12 10:53:37;;;;;;;7.30;2.10;;;;;;;-3.36;44.46;99630.27;106829;1262;67013;-40
2024/01/12 10:56:05;;;;;;;3.70;1.70;;;;;;;-3.26;44.50;99632.94;106844;1264;72739;-40
2024/01/12 10:58:34;;;;;;;4.50;2.30;;;;;;;-3.12;44.67;99631.00;106841;1268;60230;-40
2024/01/12 11:01:02;;;;;;;2.30;1.60;;;;;;;-2.92;44.10;99630.82;106864;1264;59625;-40
2024/01/12 11:03:30;;;;;;;2.70;1.60;;;;;;;-2.81;43.80;99625.47;106073;1264;1003016;-40
2024/01/12 11:05:58;;;;;;;3.50;1.60;;;;;;;-2.81;43.31;99623.13;106028;1264;1002464;-40
2024/01/12 11:08:26;;;;;;;4.10;1.60;;;;;;;-2.77;43.99;99620.31;106756;1267;72710;-39
2024/01/12 11:10:53;;;;;;;4.10;2.10;;;;;;;-2.57;43.67;99617.07;106770;1264;60055;-41
2024/01/12 11:13:21;;;;;;;4.30;1.60;;;;;;;-2.41;43.12;99615.98;106047;1263;1003657;-41
2024/01/12 11:15:51;;;;;;;3.60;1.80;;;;;;;-2.33;41.71;99618.10;106782;1264;73473;-41
2024/01/12 11:18:21;;;;;;;3.80;1.50;;;;;;;-2.46;41.80;99621.94;106815;1264;67747;-40
2024/01/12 11:20:59;;;;;;;3.90;1.40;;;;;;;-2.56;42.14;99625.23;106843;1264;72766;-40
2024/01/12 11:23:27;;;;;;;4.20;1.60;;;;;;;-2.53;42.03;99624.30;106919;1264;60252;-41
2024/01/12 11:25:55;;;;;;;2.70;1.70;;;;;;;-2.51;42.11;99617.60;106813;1264;59656;-40